createdAt,value
2023-05-02T00:00:45.680Z,13.46
2023-05-02T00:01:48.868Z,13.45
2023-05-02T00:02:51.484Z,13.45
2023-05-02T00:03:54.142Z,13.45
2023-05-02T00:04:56.555Z,13.43
2023-05-02T00:06:01.575Z,13.44
2023-05-02T00:07:03.976Z,13.43
2023-05-02T00:08:06.631Z,13.43
2023-05-02T00:09:09.192Z,13.43
2023-05-02T00:10:11.431Z,13.41
2023-05-02T00:11:14.606Z,13.42
2023-05-02T00:12:16.894Z,13.41
2023-05-02T00:13:19.158Z,13.40
2023-05-02T00:14:21.547Z,13.39
2023-05-02T00:15:23.961Z,13.39
2023-05-02T00:16:26.306Z,13.38
2023-05-02T00:17:28.735Z,13.39
2023-05-02T00:18:31.008Z,13.38
2023-05-02T00:19:39.714Z,13.38
2023-05-02T00:20:42.312Z,13.37
2023-05-02T00:21:48.372Z,13.36
2023-05-02T00:22:50.974Z,13.36
2023-05-02T00:23:53.445Z,13.35
2023-05-02T00:24:59.624Z,13.34
2023-05-02T00:26:01.893Z,13.33
2023-05-02T00:27:04.950Z,13.34
2023-05-02T00:28:07.325Z,13.32
2023-05-02T00:29:09.585Z,13.33
2023-05-02T00:30:12.138Z,13.31
2023-05-02T00:31:14.662Z,13.31
2023-05-02T00:32:17.038Z,13.30
2023-05-02T00:33:19.543Z,13.31
2023-05-02T00:34:22.026Z,13.29
2023-05-02T00:35:24.340Z,13.28
2023-05-02T00:36:27.665Z,13.28
2023-05-02T00:37:29.925Z,13.28
2023-05-02T00:38:32.149Z,13.27
2023-05-02T00:39:35.423Z,13.27
2023-05-02T00:40:48.749Z,13.26
2023-05-02T00:41:58.266Z,13.24
2023-05-02T00:43:00.523Z,13.25
2023-05-02T00:44:02.896Z,13.23
2023-05-02T00:45:06.878Z,13.23
2023-05-02T00:46:12.422Z,13.22
2023-05-02T00:47:16.216Z,13.21
2023-05-02T00:48:20.798Z,13.22
2023-05-02T00:49:23.220Z,13.21
2023-05-02T00:50:27.488Z,13.20
2023-05-02T00:51:30.278Z,13.20
2023-05-02T00:52:33.416Z,13.18
2023-05-02T00:53:36.059Z,13.19
2023-05-02T00:54:42.227Z,13.19
2023-05-02T00:55:49.672Z,13.17
2023-05-02T00:56:52.013Z,13.17
2023-05-02T00:57:54.520Z,13.18
2023-05-02T00:58:58.289Z,13.17
2023-05-02T01:00:01.548Z,13.16
2023-05-02T01:01:16.229Z,13.16
2023-05-02T01:02:31.205Z,13.16
2023-05-02T01:03:46.519Z,13.15
2023-05-02T01:05:05.944Z,13.15
2023-05-02T01:06:35.512Z,13.15
2023-05-02T01:07:49.367Z,13.14
2023-05-02T01:09:07.218Z,13.14
2023-05-02T01:10:38.995Z,13.14
2023-05-02T01:11:51.981Z,13.12
2023-05-02T01:13:03.498Z,13.13
2023-05-02T01:14:08.945Z,13.12
2023-05-02T01:15:17.364Z,13.10
2023-05-02T01:16:22.319Z,13.09
2023-05-02T01:17:30.662Z,13.09
2023-05-02T01:18:35.853Z,13.08
2023-05-02T01:19:41.919Z,13.08
2023-05-02T01:20:48.284Z,13.08
2023-05-02T01:21:52.797Z,13.08
2023-05-02T01:23:00.700Z,13.07
2023-05-02T01:24:15.046Z,13.07
2023-05-02T01:25:17.275Z,13.06
2023-05-02T01:26:44.338Z,13.05
2023-05-02T01:28:21.598Z,13.04
2023-05-02T01:29:24.684Z,13.04
2023-05-02T01:30:29.647Z,13.04
2023-05-02T01:31:36.908Z,13.02
2023-05-02T01:32:41.708Z,13.01
2023-05-02T01:33:46.300Z,13.02
2023-05-02T01:34:51.348Z,13.01
2023-05-02T01:35:54.503Z,13.01
2023-05-02T01:36:58.915Z,13.01
2023-05-02T01:38:03.477Z,12.99
2023-05-02T01:39:07.687Z,12.99
2023-05-02T01:40:11.576Z,12.99
2023-05-02T01:41:15.233Z,13.00
2023-05-02T01:42:19.605Z,12.99
2023-05-02T01:43:22.736Z,12.99
2023-05-02T01:44:27.511Z,13.00
2023-05-02T01:45:30.621Z,12.98
2023-05-02T01:46:36.516Z,12.98
2023-05-02T01:47:40.749Z,12.99
2023-05-02T01:48:52.878Z,12.98
2023-05-02T01:49:56.180Z,12.99
2023-05-02T01:50:58.892Z,13.00
2023-05-02T01:52:08.581Z,13.00
2023-05-02T01:53:14.037Z,13.00
2023-05-02T01:54:18.685Z,13.00
2023-05-02T01:55:22.264Z,13.00
2023-05-02T01:56:25.568Z,12.99
2023-05-02T01:57:27.990Z,13.00
2023-05-02T01:58:33.409Z,12.99
2023-05-02T01:59:39.106Z,12.99
2023-05-02T02:00:42.236Z,13.00
2023-05-02T02:01:46.197Z,13.00
2023-05-02T02:02:49.959Z,13.00
2023-05-02T02:03:54.931Z,13.00
2023-05-02T02:04:57.947Z,13.00
2023-05-02T02:06:01.480Z,13.00
2023-05-02T02:07:07.030Z,12.99
2023-05-02T02:08:09.466Z,12.99
2023-05-02T02:09:15.924Z,13.00
2023-05-02T02:10:18.730Z,13.00
2023-05-02T02:11:44.723Z,13.00
2023-05-02T02:12:53.822Z,13.00
2023-05-02T02:14:05.448Z,12.98
2023-05-02T02:15:19.865Z,12.98
2023-05-02T02:16:29.050Z,12.99
2023-05-02T02:17:43.441Z,12.98
2023-05-02T02:18:47.005Z,12.99
2023-05-02T02:19:54.818Z,12.98
2023-05-02T02:20:59.385Z,12.98
2023-05-02T02:22:05.357Z,12.98
2023-05-02T02:23:08.862Z,12.98
2023-05-02T02:24:13.292Z,12.99
2023-05-02T02:25:18.156Z,12.98
2023-05-02T02:26:22.554Z,12.98
2023-05-02T02:27:24.938Z,12.97
2023-05-02T02:28:27.249Z,12.97
2023-05-02T02:29:31.004Z,12.97
2023-05-02T02:30:33.399Z,12.97
2023-05-02T02:31:36.677Z,12.98
2023-05-02T02:32:39.270Z,12.98
2023-05-02T02:33:41.923Z,12.98
2023-05-02T02:34:44.261Z,12.98
2023-05-02T02:35:54.240Z,12.97
2023-05-02T02:37:12.730Z,12.97
2023-05-02T02:38:28.241Z,12.97
2023-05-02T02:40:09.296Z,12.96
2023-05-02T02:41:18.886Z,12.95
2023-05-02T02:42:44.471Z,12.94
2023-05-02T02:44:05.216Z,12.95
2023-05-02T02:45:30.215Z,12.94
2023-05-02T02:46:50.938Z,12.93
2023-05-02T02:48:02.620Z,12.93
2023-05-02T02:49:39.660Z,12.93
2023-05-02T02:50:54.901Z,12.92
2023-05-02T02:52:10.940Z,12.92
2023-05-02T02:53:25.472Z,12.90
2023-05-02T02:54:45.780Z,12.90
2023-05-02T02:55:58.667Z,12.89
2023-05-02T02:57:33.256Z,12.88
2023-05-02T02:58:38.428Z,12.87
2023-05-02T02:59:47.248Z,12.87
2023-05-02T03:00:50.621Z,12.86
2023-05-02T03:02:10.014Z,12.87
2023-05-02T03:03:15.208Z,12.84
2023-05-02T03:04:19.893Z,12.84
2023-05-02T03:05:23.902Z,12.84
2023-05-02T03:06:28.498Z,12.84
2023-05-02T03:07:32.818Z,12.82
2023-05-02T03:08:44.499Z,12.82
2023-05-02T03:09:51.492Z,12.82
2023-05-02T03:10:57.932Z,12.81
2023-05-02T03:12:00.494Z,12.81
2023-05-02T03:13:02.862Z,12.81
2023-05-02T03:14:06.315Z,12.80
2023-05-02T03:15:31.080Z,12.81
2023-05-02T03:16:40.492Z,12.80
2023-05-02T03:17:47.213Z,12.79
2023-05-02T03:18:49.539Z,12.79
2023-05-02T03:19:52.079Z,12.78
2023-05-02T03:20:54.543Z,12.77
2023-05-02T03:21:57.302Z,12.76
2023-05-02T03:23:00.157Z,12.76
2023-05-02T03:24:05.063Z,12.75
2023-05-02T03:25:07.902Z,12.73
2023-05-02T03:26:13.934Z,12.72
2023-05-02T03:27:17.765Z,12.71
2023-05-02T03:28:20.090Z,12.70
2023-05-02T03:29:25.249Z,12.69
2023-05-02T03:30:32.873Z,12.67
2023-05-02T03:31:38.039Z,12.67
2023-05-02T03:32:41.124Z,12.67
2023-05-02T03:33:43.881Z,12.64
2023-05-02T03:34:46.439Z,12.64
2023-05-02T03:35:48.838Z,12.63
2023-05-02T03:36:51.404Z,12.63
2023-05-02T03:37:53.787Z,12.62
2023-05-02T03:38:56.477Z,12.62
2023-05-02T03:40:03.604Z,12.61
2023-05-02T03:41:08.345Z,12.61
2023-05-02T03:42:10.744Z,12.61
2023-05-02T03:43:13.870Z,12.59
2023-05-02T03:44:16.304Z,12.58
2023-05-02T03:45:18.819Z,12.57
2023-05-02T03:46:21.800Z,12.57
2023-05-02T03:47:24.231Z,12.56
2023-05-02T03:48:27.710Z,12.54
2023-05-02T03:49:30.567Z,12.53
2023-05-02T03:50:33.456Z,12.52
2023-05-02T03:51:36.164Z,12.51
2023-05-02T03:52:39.198Z,12.51
2023-05-02T03:53:42.190Z,12.50
2023-05-02T03:54:44.996Z,12.49
2023-05-02T03:55:47.615Z,12.48
2023-05-02T03:56:58.386Z,12.47
2023-05-02T03:58:08.280Z,12.46
2023-05-02T03:59:10.772Z,12.45
2023-05-02T04:00:13.959Z,12.43
2023-05-02T04:01:22.465Z,12.42
2023-05-02T04:02:26.749Z,12.41
2023-05-02T04:03:30.136Z,12.40
2023-05-02T04:04:36.626Z,12.39
2023-05-02T04:05:39.437Z,12.39
2023-05-02T04:06:43.897Z,12.39
2023-05-02T04:07:46.362Z,12.36
2023-05-02T04:08:49.017Z,12.34
2023-05-02T04:09:52.100Z,12.35
2023-05-02T04:10:54.451Z,12.34
2023-05-02T04:11:57.056Z,12.35
2023-05-02T04:12:59.433Z,12.34
2023-05-02T04:14:04.208Z,12.33
2023-05-02T04:15:07.459Z,12.31
2023-05-02T04:16:09.806Z,12.33
2023-05-02T04:17:15.769Z,12.32
2023-05-02T04:18:21.788Z,12.32
2023-05-02T04:19:24.340Z,12.31
2023-05-02T04:20:26.731Z,12.30
2023-05-02T04:21:30.311Z,12.31
2023-05-02T04:22:33.343Z,12.29
2023-05-02T04:23:40.171Z,12.29
2023-05-02T04:24:44.080Z,12.27
2023-05-02T04:25:59.578Z,12.27
2023-05-02T04:27:09.763Z,12.27
2023-05-02T04:28:12.413Z,12.27
2023-05-02T04:29:15.565Z,12.25
2023-05-02T04:30:18.316Z,12.27
2023-05-02T04:31:32.479Z,12.27
2023-05-02T04:32:38.197Z,12.28
2023-05-02T04:33:41.293Z,12.28
2023-05-02T04:34:45.815Z,12.26
2023-05-02T04:35:51.624Z,12.26
2023-05-02T04:36:54.290Z,12.26
2023-05-02T04:37:58.912Z,12.27
2023-05-02T04:39:02.147Z,12.29
2023-05-02T04:40:06.963Z,12.28
2023-05-02T04:41:09.785Z,12.31
2023-05-02T04:42:17.612Z,12.30
2023-05-02T04:43:30.076Z,12.31
2023-05-02T04:44:36.365Z,12.33
2023-05-02T04:45:38.843Z,12.34
2023-05-02T04:46:46.338Z,12.37
2023-05-02T04:47:48.854Z,12.38
2023-05-02T04:48:51.287Z,12.40
2023-05-02T04:49:55.199Z,12.42
2023-05-02T04:50:57.763Z,12.44
2023-05-02T04:52:03.804Z,12.45
2023-05-02T04:53:07.421Z,12.47
2023-05-02T04:54:12.882Z,12.48
2023-05-02T04:55:24.758Z,12.50
2023-05-02T04:56:28.380Z,12.52
2023-05-02T04:57:31.366Z,12.53
2023-05-02T05:01:54.321Z,12.58
2023-05-02T05:03:59.504Z,12.61
2023-05-02T05:05:03.002Z,12.60
2023-05-02T05:06:05.723Z,12.61
2023-05-02T05:07:08.453Z,12.62
2023-05-02T05:08:10.858Z,12.63
2023-05-02T05:09:13.987Z,12.64
2023-05-02T05:10:16.342Z,12.65
2023-05-02T05:11:22.707Z,12.65
2023-05-02T05:12:25.277Z,12.67
2023-05-02T05:13:28.939Z,12.67
2023-05-02T05:14:32.086Z,12.68
2023-05-02T05:15:34.596Z,12.68
2023-05-02T05:16:39.834Z,12.70
2023-05-02T05:17:42.712Z,12.71
2023-05-02T05:18:45.155Z,12.71
2023-05-02T05:19:49.876Z,12.72
2023-05-02T05:20:52.268Z,12.73
2023-05-02T05:21:54.582Z,12.75
2023-05-02T05:22:57.531Z,12.76
2023-05-02T05:24:01.089Z,12.76
2023-05-02T05:25:05.255Z,12.77
2023-05-02T05:26:16.286Z,12.79
2023-05-02T05:27:21.770Z,12.79
2023-05-02T05:28:24.860Z,12.81
2023-05-02T05:29:27.197Z,12.82
2023-05-02T05:30:31.268Z,12.82
2023-05-02T05:31:35.415Z,12.84
2023-05-02T05:32:37.838Z,12.87
2023-05-02T05:33:41.019Z,12.87
2023-05-02T05:34:45.013Z,12.90
2023-05-02T05:35:47.976Z,12.91
2023-05-02T05:36:50.345Z,12.93
2023-05-02T05:37:55.274Z,12.97
2023-05-02T05:38:57.636Z,12.99
2023-05-02T05:40:00.530Z,13.01
2023-05-02T05:41:03.580Z,13.04
2023-05-02T05:42:07.533Z,13.06
2023-05-02T05:43:09.884Z,13.09
2023-05-02T05:44:16.246Z,13.11
2023-05-02T05:45:20.236Z,13.14
2023-05-02T05:46:22.539Z,13.17
2023-05-02T05:47:25.006Z,13.21
2023-05-02T05:48:28.405Z,13.25
2023-05-02T05:49:30.999Z,13.29
2023-05-02T05:50:33.448Z,13.32
2023-05-02T05:51:35.906Z,13.35
2023-05-02T05:52:38.273Z,13.40
2023-05-02T05:53:40.586Z,13.43
2023-05-02T05:54:45.068Z,13.46
2023-05-02T05:55:47.920Z,13.47
2023-05-02T05:56:50.258Z,13.51
2023-05-02T05:57:54.786Z,13.55
2023-05-02T05:58:57.127Z,13.57
2023-05-02T05:59:59.724Z,13.62
2023-05-02T06:01:02.519Z,13.65
2023-05-02T06:02:05.753Z,13.68
2023-05-02T06:03:09.710Z,13.71
2023-05-02T06:04:12.581Z,13.74
2023-05-02T06:05:18.197Z,13.77
2023-05-02T06:06:20.695Z,13.80
2023-05-02T06:07:23.421Z,13.85
2023-05-02T06:08:25.753Z,13.87
2023-05-02T06:09:28.891Z,13.91
2023-05-02T06:10:33.037Z,13.94
2023-05-02T06:11:37.097Z,13.98
2023-05-02T06:12:39.774Z,14.01
2023-05-02T06:13:44.909Z,14.03
2023-05-02T06:14:47.475Z,14.06
2023-05-02T06:15:50.124Z,14.09
2023-05-02T06:16:53.400Z,14.13
2023-05-02T06:17:55.879Z,14.17
2023-05-02T06:18:58.141Z,14.19
2023-05-02T06:20:00.657Z,14.22
2023-05-02T06:21:06.753Z,14.26
2023-05-02T06:22:12.583Z,14.29
2023-05-02T06:23:16.325Z,14.31
2023-05-02T06:24:18.667Z,14.35
2023-05-02T06:25:21.281Z,14.38
2023-05-02T06:26:23.645Z,14.41
2023-05-02T06:27:26.338Z,14.44
2023-05-02T06:28:29.318Z,14.46
2023-05-02T06:29:31.668Z,14.49
2023-05-02T06:30:35.594Z,14.52
2023-05-02T06:31:37.965Z,14.54
2023-05-02T06:32:42.610Z,14.59
2023-05-02T06:33:44.984Z,14.62
2023-05-02T06:34:47.247Z,14.64
2023-05-02T06:35:54.217Z,14.69
2023-05-02T06:36:59.576Z,14.71
2023-05-02T06:38:01.874Z,14.74
2023-05-02T06:39:04.315Z,14.76
2023-05-02T06:40:07.703Z,14.79
2023-05-02T06:41:18.159Z,14.82
2023-05-02T06:42:20.814Z,14.85
2023-05-02T06:43:23.111Z,14.87
2023-05-02T06:44:25.598Z,14.91
2023-05-02T06:45:28.057Z,14.94
2023-05-02T06:46:31.869Z,14.96
2023-05-02T06:47:34.303Z,14.98
2023-05-02T06:48:36.894Z,15.01
2023-05-02T06:49:39.258Z,15.03
2023-05-02T06:50:41.738Z,15.06
2023-05-02T06:51:44.037Z,15.09
2023-05-02T06:52:46.338Z,15.11
2023-05-02T06:53:48.662Z,15.16
2023-05-02T06:54:51.286Z,15.20
2023-05-02T06:55:53.886Z,15.23
2023-05-02T06:56:56.258Z,15.27
2023-05-02T06:57:59.309Z,15.31
2023-05-02T06:59:02.587Z,15.36
2023-05-02T07:00:05.571Z,15.39
2023-05-02T07:01:07.947Z,15.41
2023-05-02T07:02:10.411Z,15.44
2023-05-02T07:03:13.300Z,15.48
2023-05-02T07:04:16.169Z,15.53
2023-05-02T07:05:18.974Z,15.57
2023-05-02T07:06:22.085Z,15.60
2023-05-02T07:07:24.494Z,15.66
2023-05-02T07:08:29.576Z,15.68
2023-05-02T07:09:32.239Z,15.72
2023-05-02T07:10:34.678Z,15.75
2023-05-02T07:11:38.251Z,15.78
2023-05-02T07:12:41.690Z,15.81
2023-05-02T07:13:43.973Z,15.83
2023-05-02T07:14:47.675Z,15.85
2023-05-02T07:15:50.133Z,15.88
2023-05-02T07:16:53.887Z,15.89
2023-05-02T07:17:56.237Z,15.91
2023-05-02T07:18:58.654Z,15.91
2023-05-02T07:20:01.234Z,15.91
2023-05-02T07:21:04.073Z,15.91
2023-05-02T07:22:07.621Z,15.92
2023-05-02T07:23:09.894Z,15.92
2023-05-02T07:24:12.232Z,15.90
2023-05-02T07:25:14.518Z,15.88
2023-05-02T07:26:19.081Z,15.87
2023-05-02T07:27:21.393Z,15.84
2023-05-02T07:28:23.704Z,15.82
2023-05-02T07:29:26.408Z,15.81
2023-05-02T07:30:28.804Z,15.78
2023-05-02T07:31:31.412Z,15.76
2023-05-02T07:32:34.250Z,15.74
2023-05-02T07:33:36.641Z,15.71
2023-05-02T07:34:38.920Z,15.69
2023-05-02T07:35:41.281Z,15.65
2023-05-02T07:36:43.576Z,15.63
2023-05-02T07:37:45.948Z,15.60
2023-05-02T07:38:48.322Z,15.59
2023-05-02T07:39:50.699Z,15.55
2023-05-02T07:40:52.987Z,15.55
2023-05-02T07:41:56.131Z,15.51
2023-05-02T07:43:01.227Z,15.47
2023-05-02T07:44:03.638Z,15.44
2023-05-02T07:45:06.668Z,15.41
2023-05-02T07:46:09.440Z,15.38
2023-05-02T07:47:11.917Z,15.36
2023-05-02T07:48:14.384Z,15.34
2023-05-02T07:49:16.853Z,15.31
2023-05-02T07:50:21.362Z,15.28
2023-05-02T07:51:24.048Z,15.25
2023-05-02T07:52:27.670Z,15.23
2023-05-02T07:53:29.935Z,15.20
2023-05-02T07:54:32.185Z,15.20
2023-05-02T07:55:34.473Z,15.18
2023-05-02T07:56:36.792Z,15.17
2023-05-02T07:57:39.160Z,15.17
2023-05-02T07:58:41.438Z,15.18
2023-05-02T07:59:43.950Z,15.20
2023-05-02T08:00:46.913Z,15.21
2023-05-02T08:01:49.397Z,15.24
2023-05-02T08:02:52.707Z,15.27
2023-05-02T08:03:55.273Z,15.33
2023-05-02T08:04:57.702Z,15.37
2023-05-02T08:06:02.337Z,15.42
2023-05-02T08:07:04.685Z,15.48
2023-05-02T08:08:07.699Z,15.54
2023-05-02T08:09:09.963Z,15.59
2023-05-02T08:10:13.349Z,15.65
2023-05-02T08:11:15.636Z,15.70
2023-05-02T08:12:17.949Z,15.78
2023-05-02T08:13:21.555Z,15.84
2023-05-02T08:14:23.848Z,15.87
2023-05-02T08:15:26.245Z,15.94
2023-05-02T08:16:29.012Z,16.00
2023-05-02T08:17:32.101Z,16.04
2023-05-02T08:18:34.518Z,16.08
2023-05-02T08:19:36.801Z,16.12
2023-05-02T08:20:39.309Z,16.17
2023-05-02T08:21:42.440Z,16.21
2023-05-02T08:22:44.707Z,16.25
2023-05-02T08:23:47.082Z,16.28
2023-05-02T08:24:50.023Z,16.32
2023-05-02T08:25:52.424Z,16.36
2023-05-02T08:26:54.689Z,16.37
2023-05-02T08:27:57.153Z,16.41
2023-05-02T08:28:59.948Z,16.42
2023-05-02T08:30:02.546Z,16.45
2023-05-02T08:31:05.403Z,16.46
2023-05-02T08:32:08.026Z,16.49
2023-05-02T08:33:11.389Z,16.49
2023-05-02T08:34:14.712Z,16.49
2023-05-02T08:35:17.338Z,16.47
2023-05-02T08:36:20.084Z,16.47
2023-05-02T08:37:22.386Z,16.47
2023-05-02T08:38:24.695Z,16.45
2023-05-02T08:39:27.187Z,16.44
2023-05-02T08:40:42.022Z,16.44
2023-05-02T08:41:45.209Z,16.43
2023-05-02T08:42:47.982Z,16.41
2023-05-02T08:43:51.533Z,16.41
2023-05-02T08:44:54.180Z,16.41
2023-05-02T08:46:00.271Z,16.40
2023-05-02T08:47:03.650Z,16.39
2023-05-02T08:48:13.966Z,16.37
2023-05-02T08:49:18.262Z,16.35
2023-05-02T08:50:21.929Z,16.36
2023-05-02T08:51:25.601Z,16.37
2023-05-02T08:52:29.646Z,16.37
2023-05-02T08:53:35.304Z,16.36
2023-05-02T08:54:38.909Z,16.36
2023-05-02T08:55:43.738Z,16.35
2023-05-02T08:56:47.314Z,16.36
2023-05-02T08:57:50.070Z,16.34
2023-05-02T08:58:52.506Z,16.34
2023-05-02T08:59:56.148Z,16.32
2023-05-02T09:01:03.374Z,16.32
2023-05-02T09:02:16.120Z,16.32
2023-05-02T09:03:33.558Z,16.32
2023-05-02T09:04:41.666Z,16.33
2023-05-02T09:05:50.061Z,16.31
2023-05-02T09:06:53.023Z,16.29
2023-05-02T09:07:55.375Z,16.31
2023-05-02T09:09:03.165Z,16.31
2023-05-02T09:10:09.330Z,16.30
2023-05-02T09:11:13.031Z,16.31
2023-05-02T09:12:16.520Z,16.31
2023-05-02T09:13:32.579Z,16.31
2023-05-02T09:14:35.247Z,16.31
2023-05-02T09:15:37.602Z,16.31
2023-05-02T09:16:41.022Z,16.32
2023-05-02T09:17:45.720Z,16.31
2023-05-02T09:18:50.074Z,16.33
2023-05-02T09:20:01.258Z,16.32
2023-05-02T09:21:12.403Z,16.34
2023-05-02T09:22:23.432Z,16.34
2023-05-02T09:23:39.211Z,16.34
2023-05-02T09:24:41.603Z,16.35
2023-05-02T09:25:44.019Z,16.38
2023-05-02T09:27:03.326Z,16.39
2023-05-02T09:28:05.773Z,16.40
2023-05-02T09:29:08.099Z,16.41
2023-05-02T09:30:25.827Z,16.41
2023-05-02T09:31:54.229Z,16.43
2023-05-02T09:32:57.706Z,16.43
2023-05-02T09:34:10.966Z,16.44
2023-05-02T09:35:13.982Z,16.45
2023-05-02T09:36:18.408Z,16.46
2023-05-02T09:37:36.722Z,16.47
2023-05-02T09:38:39.119Z,16.47
2023-05-02T09:39:41.458Z,16.50
2023-05-02T09:41:10.413Z,16.54
2023-05-02T09:42:12.723Z,16.56
2023-05-02T09:43:17.346Z,16.58
2023-05-02T09:44:21.938Z,16.61
2023-05-02T09:45:26.179Z,16.65
2023-05-02T09:46:40.949Z,16.67
2023-05-02T09:47:43.501Z,16.71
2023-05-02T09:48:57.324Z,16.76
2023-05-02T09:49:59.682Z,16.78
2023-05-02T09:51:04.444Z,16.82
2023-05-02T09:52:14.344Z,16.88
2023-05-02T09:53:16.674Z,16.89
2023-05-02T09:54:38.175Z,16.94
2023-05-02T09:55:40.519Z,16.96
2023-05-02T09:56:59.011Z,16.99
2023-05-02T09:58:01.771Z,17.00
2023-05-02T09:59:17.026Z,17.05
2023-05-02T10:00:20.251Z,17.07
2023-05-02T10:01:22.818Z,17.12
2023-05-02T10:02:26.000Z,17.15
2023-05-02T10:03:29.817Z,17.18
2023-05-02T10:04:33.577Z,17.24
2023-05-02T10:05:40.130Z,17.26
2023-05-02T10:06:46.163Z,17.31
2023-05-02T10:07:49.058Z,17.33
2023-05-02T10:08:51.483Z,17.37
2023-05-02T10:09:56.079Z,17.38
2023-05-02T10:11:00.290Z,17.42
2023-05-02T10:12:08.485Z,17.46
2023-05-02T10:13:13.540Z,17.49
2023-05-02T10:14:16.840Z,17.52
2023-05-02T10:15:23.278Z,17.55
2023-05-02T10:16:29.586Z,17.58
2023-05-02T10:17:43.407Z,17.60
2023-05-02T10:18:52.869Z,17.60
2023-05-02T10:20:04.084Z,17.62
2023-05-02T10:21:10.606Z,17.65
2023-05-02T10:22:13.346Z,17.64
2023-05-02T10:23:17.355Z,17.64
2023-05-02T10:24:21.262Z,17.63
2023-05-02T10:25:23.541Z,17.61
2023-05-02T10:26:26.442Z,17.61
2023-05-02T10:27:31.214Z,17.59
2023-05-02T10:28:34.669Z,17.57
2023-05-02T10:29:38.836Z,17.57
2023-05-02T10:30:42.071Z,17.54
2023-05-02T10:31:48.559Z,17.53
2023-05-02T10:32:52.443Z,17.51
2023-05-02T10:33:56.533Z,17.48
2023-05-02T10:35:04.014Z,17.47
2023-05-02T10:36:10.344Z,17.44
2023-05-02T10:37:12.802Z,17.43
2023-05-02T10:38:22.572Z,17.42
2023-05-02T10:39:28.000Z,17.39
2023-05-02T10:40:31.392Z,17.37
2023-05-02T10:41:34.853Z,17.36
2023-05-02T10:42:48.584Z,17.36
2023-05-02T10:43:56.380Z,17.35
2023-05-02T10:45:00.366Z,17.34
2023-05-02T10:46:24.478Z,17.33
2023-05-02T10:47:27.473Z,17.30
2023-05-02T10:48:30.755Z,17.33
2023-05-02T10:49:33.169Z,17.30
2023-05-02T10:50:48.340Z,17.31
2023-05-02T10:51:50.782Z,17.30
2023-05-02T10:52:54.511Z,17.28
2023-05-02T10:54:20.287Z,17.30
2023-05-02T10:55:24.300Z,17.28
2023-05-02T10:56:29.196Z,17.30
2023-05-02T10:57:31.659Z,17.28
2023-05-02T10:58:34.554Z,17.27
2023-05-02T10:59:40.777Z,17.25
2023-05-02T11:00:43.394Z,17.26
2023-05-02T11:01:46.111Z,17.24
2023-05-02T11:02:49.439Z,17.25
2023-05-02T11:04:01.839Z,17.23
2023-05-02T11:05:08.318Z,17.21
2023-05-02T11:06:10.884Z,17.20
2023-05-02T11:07:13.122Z,17.20
2023-05-02T11:08:15.661Z,17.19
2023-05-02T11:09:18.920Z,17.19
2023-05-02T11:10:21.243Z,17.19
2023-05-02T11:11:41.589Z,17.19
2023-05-02T11:12:51.565Z,17.19
2023-05-02T11:13:53.922Z,17.19
2023-05-02T11:14:56.534Z,17.20
2023-05-02T11:15:59.056Z,17.19
2023-05-02T11:17:01.586Z,17.18
2023-05-02T11:18:07.979Z,17.20
2023-05-02T11:19:10.411Z,17.20
2023-05-02T11:20:12.634Z,17.24
2023-05-02T11:21:33.000Z,17.26
2023-05-02T11:22:35.348Z,17.26
2023-05-02T11:23:37.769Z,17.28
2023-05-02T11:24:41.542Z,17.30
2023-05-02T11:25:48.495Z,17.31
2023-05-02T11:26:50.846Z,17.34
2023-05-02T11:27:53.145Z,17.37
2023-05-02T11:28:55.467Z,17.40
2023-05-02T11:30:11.146Z,17.42
2023-05-02T11:31:28.669Z,17.43
2023-05-02T11:32:49.894Z,17.43
2023-05-02T11:33:59.617Z,17.46
2023-05-02T11:35:02.582Z,17.46
2023-05-02T11:36:05.391Z,17.49
2023-05-02T11:37:12.478Z,17.51
2023-05-02T11:38:19.327Z,17.55
2023-05-02T11:39:22.742Z,17.57
2023-05-02T11:40:26.560Z,17.57
2023-05-02T11:41:42.357Z,17.57
2023-05-02T11:42:47.819Z,17.58
2023-05-02T11:44:03.805Z,17.62
2023-05-02T11:45:06.566Z,17.62
2023-05-02T11:46:09.307Z,17.64
2023-05-02T11:47:11.660Z,17.66
2023-05-02T11:48:16.980Z,17.66
2023-05-02T11:49:19.371Z,17.69
2023-05-02T11:50:21.702Z,17.71
2023-05-02T11:51:24.128Z,17.71
2023-05-02T11:52:26.821Z,17.73
2023-05-02T11:53:30.057Z,17.73
2023-05-02T11:54:33.613Z,17.74
2023-05-02T11:55:35.994Z,17.73
2023-05-02T11:56:38.497Z,17.71
2023-05-02T11:57:41.359Z,17.71
2023-05-02T11:58:44.506Z,17.69
2023-05-02T11:59:51.189Z,17.68
2023-05-02T12:00:54.088Z,17.65
2023-05-02T12:01:57.804Z,17.64
2023-05-02T12:03:00.298Z,17.64
2023-05-02T12:04:04.529Z,17.60
2023-05-02T12:05:12.613Z,17.59
2023-05-02T12:06:19.483Z,17.57
2023-05-02T12:07:35.066Z,17.55
2023-05-02T12:08:38.384Z,17.53
2023-05-02T12:09:54.052Z,17.52
2023-05-02T12:10:57.214Z,17.51
2023-05-02T12:11:59.537Z,17.49
2023-05-02T12:13:06.162Z,17.49
2023-05-02T12:14:09.391Z,17.46
2023-05-02T12:15:13.424Z,17.48
2023-05-02T12:16:18.683Z,17.49
2023-05-02T12:17:22.101Z,17.51
2023-05-02T12:18:25.731Z,17.53
2023-05-02T12:19:28.260Z,17.54
2023-05-02T12:20:30.839Z,17.56
2023-05-02T12:21:33.636Z,17.57
2023-05-02T12:22:36.460Z,17.61
2023-05-02T12:23:40.199Z,17.61
2023-05-02T12:24:43.931Z,17.63
2023-05-02T12:25:46.516Z,17.64
2023-05-02T12:26:50.123Z,17.65
2023-05-02T12:28:01.357Z,17.68
2023-05-02T12:29:06.949Z,17.68
2023-05-02T12:30:09.569Z,17.69
2023-05-02T12:31:12.369Z,17.70
2023-05-02T12:32:16.648Z,17.69
2023-05-02T12:33:19.428Z,17.68
2023-05-02T12:34:35.300Z,17.68
2023-05-02T12:35:37.689Z,17.65
2023-05-02T12:36:45.581Z,17.64
2023-05-02T12:37:47.892Z,17.61
2023-05-02T12:38:57.323Z,17.61
2023-05-02T12:40:00.119Z,17.60
2023-05-02T12:41:03.649Z,17.60
2023-05-02T12:42:13.827Z,17.61
2023-05-02T12:43:16.247Z,17.60
2023-05-02T12:44:36.901Z,17.62
2023-05-02T12:45:39.414Z,17.64
2023-05-02T12:47:00.647Z,17.67
2023-05-02T12:48:22.026Z,17.71
2023-05-02T12:49:24.494Z,17.73
2023-05-02T12:50:39.312Z,17.78
2023-05-02T12:51:41.754Z,17.79
2023-05-02T12:52:59.415Z,17.79
2023-05-02T12:54:01.877Z,17.81
2023-05-02T12:55:19.964Z,17.81
2023-05-02T12:56:23.027Z,17.83
2023-05-02T12:57:26.349Z,17.83
2023-05-02T12:58:28.825Z,17.85
2023-05-02T12:59:32.549Z,17.85
2023-05-02T13:00:40.394Z,17.88
2023-05-02T13:01:42.701Z,17.88
2023-05-02T13:02:45.234Z,17.91
2023-05-02T13:03:48.510Z,17.92
2023-05-02T13:04:51.084Z,17.94
2023-05-02T13:05:56.619Z,17.97
2023-05-02T13:06:59.012Z,17.98
2023-05-02T13:08:01.356Z,18.00
2023-05-02T13:09:03.809Z,18.01
2023-05-02T13:10:06.492Z,18.03
2023-05-02T13:11:09.289Z,18.05
2023-05-02T13:12:11.613Z,18.06
2023-05-02T13:13:13.973Z,18.08
2023-05-02T13:14:16.259Z,18.09
2023-05-02T13:15:19.473Z,18.12
2023-05-02T13:16:21.970Z,18.14
2023-05-02T13:17:24.490Z,18.10
2023-05-02T13:18:28.411Z,18.11
2023-05-02T13:19:31.726Z,18.10
2023-05-02T13:20:34.328Z,18.10
2023-05-02T13:21:36.592Z,18.09
2023-05-02T13:22:38.922Z,18.07
2023-05-02T13:23:41.604Z,18.06
2023-05-02T13:24:45.091Z,18.05
2023-05-02T13:25:48.648Z,18.04
2023-05-02T13:26:51.733Z,18.02
2023-05-02T13:27:54.081Z,18.01
2023-05-02T13:28:56.507Z,18.00
2023-05-02T13:29:59.220Z,17.98
2023-05-02T13:31:01.710Z,17.99
2023-05-02T13:32:04.217Z,17.97
2023-05-02T13:33:06.683Z,17.96
2023-05-02T13:34:09.302Z,17.94
2023-05-02T13:35:14.220Z,17.91
2023-05-02T13:36:16.691Z,17.90
2023-05-02T13:37:19.137Z,17.88
2023-05-02T13:38:21.573Z,17.86
2023-05-02T13:39:24.023Z,17.85
2023-05-02T13:40:27.454Z,17.85
2023-05-02T13:41:29.831Z,17.85
2023-05-02T13:42:32.251Z,17.83
2023-05-02T13:43:34.614Z,17.81
2023-05-02T13:44:38.957Z,17.79
2023-05-02T13:45:42.647Z,17.79
2023-05-02T13:46:45.094Z,17.78
2023-05-02T13:47:47.585Z,17.79
2023-05-02T13:48:49.932Z,17.79
2023-05-02T13:49:52.508Z,17.79
2023-05-02T13:50:54.895Z,17.78
2023-05-02T13:51:57.194Z,17.79
2023-05-02T13:52:59.505Z,17.79
2023-05-02T13:54:02.636Z,17.81
2023-05-02T13:55:05.356Z,17.81
2023-05-02T13:56:07.977Z,17.82
2023-05-02T13:57:10.531Z,17.83
2023-05-02T13:58:12.851Z,17.83
2023-05-02T13:59:15.173Z,17.84
2023-05-02T14:00:18.004Z,17.84
2023-05-02T14:01:20.320Z,17.84
2023-05-02T14:02:22.858Z,17.84
2023-05-02T14:03:25.449Z,17.82
2023-05-02T14:04:28.014Z,17.84